createdAt,value
2023-12-11T00:00:09.830Z,5.60
2023-12-11T00:02:38.541Z,5.70
2023-12-11T00:05:09.580Z,5.70
2023-12-11T00:07:38.459Z,5.70
2023-12-11T00:10:08.339Z,5.70
2023-12-11T00:12:38.092Z,5.70
2023-12-11T00:15:07.699Z,5.70
2023-12-11T00:17:36.562Z,5.70
2023-12-11T00:20:05.768Z,5.70
2023-12-11T00:22:35.964Z,5.80
2023-12-11T00:25:04.922Z,5.70
2023-12-11T00:27:33.802Z,5.70
2023-12-11T00:30:03.027Z,5.70
2023-12-11T00:32:31.785Z,5.70
2023-12-11T00:35:00.825Z,5.70
2023-12-11T00:37:29.897Z,5.80
2023-12-11T00:40:00.349Z,5.80
2023-12-11T00:42:29.162Z,5.80
2023-12-11T00:44:57.936Z,5.90
2023-12-11T00:47:26.850Z,5.80
2023-12-11T00:49:55.690Z,5.80
2023-12-11T00:52:24.567Z,5.70
2023-12-11T00:54:53.225Z,5.60
2023-12-11T00:57:23.694Z,5.60
2023-12-11T00:59:52.358Z,5.40
2023-12-11T01:02:21.062Z,5.40
2023-12-11T01:04:49.782Z,5.50
2023-12-11T01:07:18.523Z,5.50
2023-12-11T01:09:47.216Z,5.50
2023-12-11T01:12:16.440Z,5.50
2023-12-11T01:14:46.542Z,5.40
2023-12-11T01:17:37.164Z,5.40
2023-12-11T01:20:05.446Z,5.40
2023-12-11T01:22:34.231Z,5.50
2023-12-11T01:25:04.723Z,5.50
2023-12-11T01:27:33.837Z,5.40
2023-12-11T01:30:04.501Z,5.40
2023-12-11T01:32:33.190Z,5.40
2023-12-11T01:35:02.021Z,5.40
2023-12-11T01:37:31.068Z,5.40
2023-12-11T01:40:00.071Z,5.30
2023-12-11T01:42:28.853Z,5.30
2023-12-11T01:44:57.549Z,5.20
2023-12-11T01:47:28.061Z,5.10
2023-12-11T01:49:57.100Z,5.10
2023-12-11T01:52:26.416Z,5.00
2023-12-11T01:54:55.441Z,5.00
2023-12-11T01:57:24.714Z,5.00
2023-12-11T01:59:53.768Z,5.00
2023-12-11T02:02:22.529Z,4.90
2023-12-11T02:04:55.512Z,4.80
2023-12-11T02:07:24.483Z,4.70
2023-12-11T02:09:53.374Z,4.70
2023-12-11T02:12:22.146Z,4.70
2023-12-11T02:14:50.715Z,4.70
2023-12-11T02:17:19.452Z,4.70
2023-12-11T02:19:48.214Z,4.70
2023-12-11T02:22:18.664Z,4.70
2023-12-11T02:24:52.276Z,4.80
2023-12-11T02:27:22.575Z,4.80
2023-12-11T02:29:52.114Z,4.80
2023-12-11T02:32:21.008Z,4.70
2023-12-11T02:34:49.788Z,4.70
2023-12-11T02:37:18.635Z,4.70
2023-12-11T02:39:48.196Z,4.70
2023-12-11T02:42:16.915Z,4.70
2023-12-11T02:44:47.052Z,4.60
2023-12-11T02:47:15.861Z,4.70
2023-12-11T02:49:44.579Z,4.60
2023-12-11T02:52:13.454Z,4.70
2023-12-11T02:54:42.213Z,4.70
2023-12-11T02:57:10.997Z,4.70
2023-12-11T02:59:39.704Z,4.70
2023-12-11T03:02:09.783Z,4.70
2023-12-11T03:04:38.531Z,4.70
2023-12-11T03:07:07.378Z,4.70
2023-12-11T03:09:36.158Z,4.70
2023-12-11T03:12:05.262Z,4.70
2023-12-11T03:14:33.956Z,4.70
2023-12-11T03:17:02.687Z,4.60
2023-12-11T03:19:36.006Z,4.60
2023-12-11T03:22:04.907Z,4.60
2023-12-11T03:24:33.578Z,4.70
2023-12-11T03:27:02.362Z,4.60
2023-12-11T03:29:31.099Z,4.60
2023-12-11T03:31:59.852Z,4.50
2023-12-11T03:34:28.724Z,4.50
2023-12-11T03:36:58.904Z,4.50
2023-12-11T03:39:27.764Z,4.50
2023-12-11T03:41:57.445Z,4.40
2023-12-11T03:44:26.201Z,4.50
2023-12-11T03:46:54.884Z,4.40
2023-12-11T03:49:23.776Z,4.40
2023-12-11T03:51:52.737Z,4.50
2023-12-11T03:54:22.894Z,4.50
2023-12-11T03:56:51.632Z,4.50
2023-12-11T03:59:20.416Z,4.60
2023-12-11T04:01:49.318Z,4.60
2023-12-11T04:04:18.434Z,4.70
2023-12-11T04:06:47.207Z,4.70
2023-12-11T04:09:15.959Z,4.80
2023-12-11T04:11:46.760Z,4.80
2023-12-11T04:14:15.454Z,4.90
2023-12-11T04:16:44.227Z,4.80
2023-12-11T04:19:13.821Z,4.80
2023-12-11T04:21:42.865Z,4.80
2023-12-11T04:24:14.241Z,4.80
2023-12-11T04:26:43.809Z,4.90
2023-12-11T04:29:14.058Z,5.00
2023-12-11T04:31:42.800Z,4.90
2023-12-11T04:34:11.630Z,5.00
2023-12-11T04:36:43.298Z,5.00
2023-12-11T04:39:14.075Z,5.00
2023-12-11T04:41:43.103Z,5.10
2023-12-11T04:44:14.664Z,5.10
2023-12-11T04:46:44.730Z,5.10
2023-12-11T04:49:13.527Z,5.10
2023-12-11T04:51:42.290Z,5.20
2023-12-11T04:54:11.006Z,5.30
2023-12-11T04:56:39.698Z,5.30
2023-12-11T04:59:08.426Z,5.40
2023-12-11T05:01:37.374Z,5.40
2023-12-11T05:04:07.876Z,5.50
2023-12-11T05:06:36.782Z,5.50
2023-12-11T05:09:06.225Z,5.50
2023-12-11T05:11:34.981Z,5.50
2023-12-11T05:14:03.822Z,5.50
2023-12-11T05:16:32.686Z,5.60
2023-12-11T05:19:01.423Z,5.60
2023-12-11T05:21:31.585Z,5.70
2023-12-11T05:24:00.514Z,5.70
2023-12-11T05:26:29.205Z,5.70
2023-12-11T05:28:57.902Z,5.80
2023-12-11T05:31:26.536Z,5.80
2023-12-11T05:33:56.392Z,5.90
2023-12-11T05:36:25.355Z,5.90
2023-12-11T05:38:55.489Z,6.00
2023-12-11T05:41:24.265Z,6.00
2023-12-11T05:43:53.113Z,6.10
2023-12-11T05:46:21.989Z,6.20
2023-12-11T05:48:50.855Z,6.20
2023-12-11T05:51:19.687Z,6.20
2023-12-11T05:53:48.397Z,6.40
2023-12-11T05:56:18.406Z,6.40
2023-12-11T05:58:47.076Z,6.40
2023-12-11T06:01:15.932Z,6.50
2023-12-11T06:03:44.755Z,6.40
2023-12-11T06:06:18.115Z,6.50
2023-12-11T06:08:46.976Z,6.40
2023-12-11T06:11:15.564Z,6.40
2023-12-11T06:13:45.915Z,6.40
2023-12-11T06:16:15.105Z,6.40
2023-12-11T06:18:44.022Z,6.50
2023-12-11T06:21:20.297Z,6.50
2023-12-11T06:23:49.617Z,6.50
2023-12-11T06:26:34.855Z,6.50
2023-12-11T06:29:05.266Z,6.50
2023-12-11T06:31:35.634Z,6.50
2023-12-11T06:34:04.712Z,6.50
2023-12-11T06:36:33.742Z,6.40
2023-12-11T06:39:03.090Z,6.30
2023-12-11T06:41:32.216Z,6.30
2023-12-11T06:44:01.922Z,6.30
2023-12-11T06:46:32.393Z,6.40
2023-12-11T06:49:01.583Z,6.40
2023-12-11T06:51:31.870Z,6.40
2023-12-11T06:54:01.022Z,6.30
2023-12-11T06:56:32.524Z,6.20
2023-12-11T06:59:02.221Z,6.20
2023-12-11T07:01:35.279Z,6.20
2023-12-11T07:04:05.767Z,6.30
2023-12-11T07:06:35.204Z,6.30
2023-12-11T07:09:04.457Z,6.30
2023-12-11T07:11:34.208Z,6.40
2023-12-11T07:14:03.321Z,6.40
2023-12-11T07:16:37.373Z,6.40
2023-12-11T07:19:06.536Z,6.50
2023-12-11T07:21:36.345Z,6.50
2023-12-11T07:24:09.517Z,6.70
2023-12-11T07:26:39.340Z,6.60
2023-12-11T07:29:09.260Z,6.70
2023-12-11T07:31:41.248Z,6.70
2023-12-11T07:34:10.239Z,6.70
2023-12-11T07:36:39.112Z,6.80
2023-12-11T07:39:08.729Z,6.90
2023-12-11T07:41:37.765Z,6.90
2023-12-11T07:44:06.855Z,7.00
2023-12-11T07:46:38.162Z,7.10
2023-12-11T07:49:10.545Z,7.10
2023-12-11T07:51:40.802Z,7.10
2023-12-11T07:54:09.841Z,7.00
2023-12-11T07:56:39.745Z,7.00
2023-12-11T07:59:09.071Z,7.10
2023-12-11T08:01:38.041Z,7.10
2023-12-11T08:04:07.385Z,7.10
2023-12-11T08:06:45.369Z,7.30
2023-12-11T08:09:16.101Z,7.30
2023-12-11T08:11:44.884Z,7.10
2023-12-11T08:14:14.306Z,7.10
2023-12-11T08:16:43.456Z,7.10
2023-12-11T08:19:12.530Z,7.20
2023-12-11T08:21:43.721Z,7.20
2023-12-11T08:24:13.642Z,7.20
2023-12-11T08:26:42.408Z,7.30
2023-12-11T08:29:11.918Z,7.30
2023-12-11T08:31:41.066Z,7.30
2023-12-11T08:34:11.036Z,7.40
2023-12-11T08:36:49.397Z,7.40
2023-12-11T08:39:34.871Z,7.40
2023-12-11T08:42:05.984Z,7.40
2023-12-11T08:44:40.204Z,7.40
2023-12-11T08:47:41.702Z,7.40
2023-12-11T08:50:16.811Z,7.50
2023-12-11T08:52:49.660Z,7.60
2023-12-11T08:55:19.386Z,7.60
2023-12-11T08:57:48.266Z,7.60
2023-12-11T09:00:18.433Z,7.80
2023-12-11T09:02:51.713Z,8.10
2023-12-11T09:05:23.305Z,8.30
2023-12-11T09:07:53.549Z,8.40
2023-12-11T09:10:22.341Z,8.40
2023-12-11T09:12:51.601Z,8.40
2023-12-11T09:15:20.724Z,8.40
2023-12-11T09:17:49.845Z,8.40
2023-12-11T09:20:18.951Z,8.30
2023-12-11T09:22:49.138Z,8.40
2023-12-11T09:25:19.725Z,8.70
2023-12-11T09:27:49.100Z,9.00
2023-12-11T09:30:18.400Z,8.90
2023-12-11T09:32:47.463Z,8.70
2023-12-11T09:35:17.108Z,8.60
2023-12-11T09:37:47.250Z,8.50
2023-12-11T09:40:16.523Z,8.50
2023-12-11T09:42:47.025Z,8.40
2023-12-11T09:45:20.377Z,8.40
2023-12-11T09:48:03.841Z,8.30
2023-12-11T09:50:43.489Z,8.40
2023-12-11T09:53:12.888Z,8.60
2023-12-11T09:55:41.626Z,8.90
2023-12-11T09:58:12.967Z,10.00
2023-12-11T10:00:43.914Z,11.20
2023-12-11T10:03:13.174Z,11.80
2023-12-11T10:05:42.352Z,12.40
2023-12-11T10:08:12.428Z,12.40
2023-12-11T10:10:42.186Z,12.30
2023-12-11T10:13:25.445Z,11.40
2023-12-11T10:15:54.827Z,10.70
2023-12-11T10:18:26.626Z,10.20
2023-12-11T10:20:58.826Z,10.60
2023-12-11T10:23:28.254Z,10.90
2023-12-11T10:26:07.898Z,11.00
2023-12-11T10:28:38.381Z,10.70
2023-12-11T10:31:07.297Z,10.40
2023-12-11T10:33:37.042Z,10.10
2023-12-11T10:36:13.688Z,9.80
2023-12-11T10:38:43.024Z,9.80
2023-12-11T10:41:44.005Z,9.90
2023-12-11T10:44:40.222Z,10.00
2023-12-11T10:47:16.522Z,10.10
2023-12-11T10:49:45.298Z,10.80
2023-12-11T10:52:14.655Z,12.20
2023-12-11T10:54:44.186Z,13.30
2023-12-11T10:57:16.905Z,14.00
2023-12-11T10:59:48.189Z,14.70
2023-12-11T11:02:20.641Z,15.30
2023-12-11T11:04:50.140Z,15.70
2023-12-11T11:07:28.744Z,15.90
2023-12-11T11:10:06.613Z,16.20
2023-12-11T11:12:44.022Z,16.20
2023-12-11T11:15:14.397Z,15.20
2023-12-11T11:18:03.021Z,14.00
2023-12-11T11:20:37.520Z,12.80
2023-12-11T11:23:28.467Z,12.10
2023-12-11T11:25:58.887Z,11.60
2023-12-11T11:28:44.173Z,11.40
2023-12-11T11:31:23.797Z,11.20
2023-12-11T11:34:17.035Z,11.30
2023-12-11T11:36:48.141Z,11.40
2023-12-11T11:39:17.778Z,11.30
2023-12-11T11:41:49.792Z,11.00
2023-12-11T11:44:24.789Z,10.90
2023-12-11T11:47:01.612Z,10.80
2023-12-11T11:49:33.385Z,10.80
2023-12-11T11:52:05.981Z,10.90
2023-12-11T11:54:37.803Z,10.90
2023-12-11T11:57:07.958Z,11.30
2023-12-11T11:59:45.071Z,11.60
2023-12-11T12:02:23.936Z,11.60
2023-12-11T12:04:53.133Z,11.80
2023-12-11T12:07:22.976Z,12.80
2023-12-11T12:10:01.085Z,13.70
2023-12-11T12:12:29.923Z,14.10
2023-12-11T12:15:06.071Z,14.40
2023-12-11T12:17:37.290Z,14.70
2023-12-11T12:20:13.536Z,14.30
2023-12-11T12:22:55.820Z,14.40
2023-12-11T12:25:26.205Z,14.90
2023-12-11T12:27:57.908Z,15.30
2023-12-11T12:30:26.973Z,15.50
2023-12-11T12:32:58.088Z,15.40
2023-12-11T12:35:28.207Z,15.50
2023-12-11T12:37:58.236Z,15.20
2023-12-11T12:40:27.195Z,15.20
2023-12-11T12:42:57.765Z,15.20
2023-12-11T12:45:36.477Z,15.30
2023-12-11T12:48:09.872Z,15.50
2023-12-11T12:50:39.180Z,15.40
2023-12-11T12:53:09.777Z,15.20
2023-12-11T12:55:39.404Z,14.30
2023-12-11T12:58:09.504Z,13.50
2023-12-11T13:00:41.462Z,12.50
2023-12-11T13:03:11.939Z,12.00
2023-12-11T13:05:42.754Z,11.80
2023-12-11T13:08:13.964Z,12.00
2023-12-11T13:10:55.650Z,12.30
2023-12-11T13:13:28.262Z,12.70
2023-12-11T13:15:59.346Z,12.50
2023-12-11T13:18:32.471Z,11.80
2023-12-11T13:21:01.345Z,11.00
2023-12-11T13:23:30.204Z,10.60
2023-12-11T13:25:59.804Z,10.30
2023-12-11T13:28:28.734Z,10.20
2023-12-11T13:30:57.556Z,10.10
2023-12-11T13:33:29.470Z,10.10
2023-12-11T13:36:00.731Z,9.90
2023-12-11T13:38:29.802Z,9.80
2023-12-11T13:41:02.812Z,9.70
2023-12-11T13:43:32.736Z,9.70
2023-12-11T13:46:02.156Z,9.50
2023-12-11T13:48:32.479Z,9.50
2023-12-11T13:51:03.520Z,9.40
2023-12-11T13:53:32.321Z,9.30
2023-12-11T13:56:01.681Z,9.30
2023-12-11T13:58:32.362Z,9.30
2023-12-11T14:01:03.148Z,9.10
2023-12-11T14:03:32.660Z,8.70
2023-12-11T14:06:03.793Z,8.40
2023-12-11T14:08:33.721Z,8.20
2023-12-11T14:11:03.001Z,8.10
2023-12-11T14:13:32.040Z,8.10
2023-12-11T14:16:01.250Z,8.10
2023-12-11T14:18:32.058Z,8.00
2023-12-11T14:21:03.348Z,8.00
2023-12-11T14:23:32.143Z,8.00
2023-12-11T14:26:00.905Z,8.10
2023-12-11T14:28:30.245Z,8.10
2023-12-11T14:31:00.582Z,8.10
2023-12-11T14:33:29.506Z,8.10
2023-12-11T14:35:58.383Z,8.10
2023-12-11T14:38:28.432Z,8.10
2023-12-11T14:40:59.481Z,8.10
2023-12-11T14:43:30.361Z,8.10
2023-12-11T14:45:59.128Z,8.10
2023-12-11T14:48:27.926Z,8.20
2023-12-11T14:50:56.961Z,8.20
2023-12-11T14:53:26.277Z,8.30
2023-12-11T14:55:56.593Z,8.30
2023-12-11T14:58:25.621Z,8.40
2023-12-11T15:00:55.091Z,8.40
2023-12-11T15:03:24.383Z,8.40
2023-12-11T15:05:53.246Z,8.50
2023-12-11T15:08:23.582Z,8.60
2023-12-11T15:10:52.292Z,8.60
2023-12-11T15:14:21.603Z,8.60
2023-12-11T15:16:52.002Z,8.60
2023-12-11T15:19:20.951Z,8.60
2023-12-11T15:21:49.850Z,8.70
2023-12-11T15:24:18.636Z,8.70
2023-12-11T15:26:47.429Z,8.70
2023-12-11T15:29:17.684Z,8.70
2023-12-11T15:31:46.840Z,8.70
2023-12-11T15:34:15.900Z,8.70
2023-12-11T15:36:44.844Z,8.80
2023-12-11T15:39:13.699Z,8.80
2023-12-11T15:41:44.304Z,8.70
2023-12-11T15:44:13.577Z,8.60
2023-12-11T15:46:44.965Z,8.50
2023-12-11T15:49:14.013Z,8.50
2023-12-11T15:51:43.392Z,8.50
2023-12-11T15:54:12.906Z,8.50
2023-12-11T15:56:41.690Z,8.60
2023-12-11T15:59:10.608Z,8.60
2023-12-11T16:01:39.571Z,8.60
2023-12-11T16:04:09.888Z,8.60
2023-12-11T16:06:42.930Z,8.60
2023-12-11T16:09:12.309Z,8.70
2023-12-11T16:11:41.664Z,8.70
2023-12-11T16:14:10.687Z,8.70
2023-12-11T16:16:41.356Z,8.70
2023-12-11T16:19:12.799Z,8.60
2023-12-11T16:21:42.052Z,8.70
2023-12-11T16:24:10.810Z,8.70
2023-12-11T16:26:40.561Z,8.70
2023-12-11T16:29:10.467Z,8.70
2023-12-11T16:31:40.183Z,8.70
2023-12-11T16:34:09.008Z,8.70
2023-12-11T16:36:39.837Z,8.70
2023-12-11T16:39:08.901Z,8.80
2023-12-11T16:41:37.815Z,8.80
2023-12-11T16:44:07.032Z,8.80
2023-12-11T16:46:36.053Z,8.80
2023-12-11T16:49:05.446Z,8.80
2023-12-11T16:51:37.624Z,8.80
2023-12-11T16:54:08.290Z,8.70
2023-12-11T16:56:37.262Z,8.60
2023-12-11T16:59:09.011Z,8.60
2023-12-11T17:01:38.982Z,8.60
2023-12-11T17:04:07.947Z,8.60
2023-12-11T17:06:36.824Z,8.40
2023-12-11T17:09:07.446Z,8.20
2023-12-11T17:11:40.237Z,8.10
2023-12-11T17:14:09.029Z,8.00
2023-12-11T17:16:38.201Z,7.90
2023-12-11T17:19:09.004Z,7.80
2023-12-11T17:21:38.936Z,7.70
2023-12-11T17:24:10.214Z,7.70
2023-12-11T17:26:39.046Z,7.60
2023-12-11T17:29:08.097Z,7.60
2023-12-11T17:31:36.914Z,7.60
2023-12-11T17:34:05.779Z,7.60
2023-12-11T17:36:34.624Z,7.50
2023-12-11T17:39:03.816Z,7.50
2023-12-11T17:41:34.962Z,7.60
2023-12-11T17:44:03.937Z,7.60
2023-12-11T17:46:32.936Z,7.70
2023-12-11T17:49:01.804Z,7.60
2023-12-11T17:51:30.668Z,7.70
2023-12-11T17:53:59.454Z,7.70
2023-12-11T17:56:31.336Z,7.70
2023-12-11T17:59:02.966Z,7.70
2023-12-11T18:01:32.149Z,7.70
2023-12-11T18:04:01.309Z,7.70
2023-12-11T18:06:30.168Z,7.80
2023-12-11T18:08:59.106Z,7.80
2023-12-11T18:11:27.845Z,7.90
2023-12-11T18:13:56.807Z,8.00
2023-12-11T18:16:27.080Z,7.90
2023-12-11T18:18:56.170Z,7.90
2023-12-11T18:21:26.557Z,7.90
2023-12-11T18:23:58.248Z,7.90
2023-12-11T18:26:27.651Z,7.80
2023-12-11T18:28:56.880Z,7.70
2023-12-11T18:31:27.390Z,7.70
2023-12-11T18:33:56.503Z,7.70
2023-12-11T18:36:25.968Z,7.70
2023-12-11T18:38:54.824Z,7.70
2023-12-11T18:41:24.946Z,7.70
2023-12-11T18:43:55.641Z,7.70
2023-12-11T18:46:24.511Z,7.80
2023-12-11T18:48:58.438Z,7.70
2023-12-11T18:51:28.923Z,7.70
2023-12-11T18:53:58.870Z,7.70
2023-12-11T18:56:28.173Z,7.70
2023-12-11T18:58:57.200Z,7.70
2023-12-11T19:01:26.511Z,7.70
2023-12-11T19:03:56.966Z,7.70
2023-12-11T19:06:26.061Z,7.70
2023-12-11T19:08:55.004Z,7.70
2023-12-11T19:11:25.551Z,7.70
2023-12-11T19:13:55.099Z,7.80
2023-12-11T19:16:24.233Z,7.80
2023-12-11T19:18:53.398Z,7.80
2023-12-11T19:21:24.824Z,7.80
2023-12-11T19:23:56.224Z,7.80
2023-12-11T19:26:25.678Z,7.80
2023-12-11T19:28:54.982Z,7.80
2023-12-11T19:31:25.061Z,7.80
2023-12-11T19:33:54.653Z,7.80
2023-12-11T19:36:25.887Z,7.80
2023-12-11T19:38:55.929Z,7.80
2023-12-11T19:41:25.895Z,7.70
2023-12-11T19:43:56.243Z,7.70
2023-12-11T19:46:25.470Z,7.70
2023-12-11T19:48:54.491Z,7.70
2023-12-11T19:51:30.323Z,7.70
2023-12-11T19:54:00.865Z,7.60
2023-12-11T19:56:29.744Z,7.70
2023-12-11T19:58:58.643Z,7.60
2023-12-11T20:01:32.359Z,7.60
2023-12-11T20:04:02.120Z,7.60
2023-12-11T20:06:32.798Z,7.60
2023-12-11T20:09:03.521Z,7.60
2023-12-11T20:11:37.963Z,7.60
2023-12-11T20:18:01.546Z,7.60
2023-12-11T20:20:31.337Z,7.50
2023-12-11T20:23:02.679Z,7.50
2023-12-11T20:25:31.936Z,7.50
2023-12-11T20:28:01.245Z,7.50
2023-12-11T20:30:30.758Z,7.50
2023-12-11T20:33:00.241Z,7.40
2023-12-11T20:35:34.993Z,7.40
2023-12-11T20:38:06.324Z,7.40
2023-12-11T20:40:38.436Z,7.40
2023-12-11T20:43:08.536Z,7.40
2023-12-11T20:45:37.589Z,7.40
2023-12-11T20:48:08.744Z,7.40
2023-12-11T20:50:39.085Z,7.40
2023-12-11T20:53:09.543Z,7.40
2023-12-11T20:55:38.499Z,7.40
2023-12-11T20:58:07.341Z,7.40
2023-12-11T21:00:36.139Z,7.30
2023-12-11T21:03:05.493Z,7.30
2023-12-11T21:05:34.894Z,7.30
2023-12-11T21:08:04.417Z,7.30
2023-12-11T21:10:34.745Z,7.20
2023-12-11T21:13:04.202Z,7.20
2023-12-11T21:15:33.109Z,7.20
2023-12-11T21:18:02.260Z,7.20
2023-12-11T21:20:33.072Z,7.10
2023-12-11T21:23:02.471Z,7.20
2023-12-11T21:25:31.432Z,7.20
2023-12-11T21:28:02.511Z,7.20
2023-12-11T21:30:31.616Z,7.10
2023-12-11T21:33:01.665Z,7.10
2023-12-11T21:35:32.806Z,7.10
2023-12-11T21:38:01.645Z,7.10
2023-12-11T21:40:30.646Z,7.10
2023-12-11T21:43:01.027Z,7.10
2023-12-11T21:45:30.089Z,7.00
2023-12-11T21:47:59.286Z,7.00
2023-12-11T21:50:28.103Z,7.00
2023-12-11T21:52:57.305Z,7.00
2023-12-11T21:55:26.051Z,6.90
2023-12-11T21:57:54.841Z,6.90
2023-12-11T22:00:25.506Z,6.90
2023-12-11T22:02:54.372Z,6.90
2023-12-11T22:05:23.362Z,6.90
2023-12-11T22:07:52.211Z,6.90
2023-12-11T22:10:22.982Z,6.90
2023-12-11T22:12:51.829Z,6.90
2023-12-11T22:15:20.592Z,6.90
2023-12-11T22:17:52.318Z,6.90
2023-12-11T22:20:21.182Z,6.90
2023-12-11T22:22:51.930Z,6.90
2023-12-11T22:25:20.849Z,7.00
2023-12-11T22:27:50.180Z,7.10
2023-12-11T22:30:19.144Z,7.10
2023-12-11T22:32:49.559Z,7.10
2023-12-11T22:35:20.006Z,7.10
2023-12-11T22:37:48.835Z,7.10
2023-12-11T22:40:18.037Z,7.10
2023-12-11T22:42:48.450Z,7.20
2023-12-11T22:45:18.357Z,7.10
2023-12-11T22:47:47.332Z,7.20
2023-12-11T22:50:17.957Z,7.30
2023-12-11T22:52:46.692Z,7.30
2023-12-11T22:55:16.543Z,7.30
2023-12-11T22:57:45.355Z,7.40
2023-12-11T23:00:22.559Z,7.40
2023-12-11T23:02:51.253Z,7.40
2023-12-11T23:05:21.860Z,7.40
2023-12-11T23:07:54.440Z,7.50
2023-12-11T23:10:25.023Z,7.60
2023-12-11T23:12:53.841Z,7.60
2023-12-11T23:15:23.305Z,7.60
2023-12-11T23:17:51.989Z,7.60
2023-12-11T23:20:22.160Z,7.60
2023-12-11T23:22:50.909Z,7.60
2023-12-11T23:25:22.173Z,7.60
2023-12-11T23:27:51.345Z,7.60
2023-12-11T23:30:20.170Z,7.50
2023-12-11T23:32:48.964Z,7.50
2023-12-11T23:35:17.863Z,7.40
2023-12-11T23:37:48.574Z,7.40
2023-12-11T23:40:17.697Z,7.40
2023-12-11T23:42:46.525Z,7.30
2023-12-11T23:45:15.250Z,7.30
2023-12-11T23:47:44.355Z,7.30
2023-12-11T23:50:13.356Z,7.30
2023-12-11T23:52:42.551Z,7.30
2023-12-11T23:55:13.153Z,7.30
2023-12-11T23:57:42.675Z,7.30
